sensor_id;sensor_type;location;lat;lon;timestamp;temperature;humidity
11152;DHT22;5630;49.342;10.802;2023-08-31T00:00:43;13.70;99.90
11152;DHT22;5630;49.342;10.802;2023-08-31T00:03:09;13.60;99.90
11152;DHT22;5630;49.342;10.802;2023-08-31T00:05:41;13.60;99.90
11152;DHT22;5630;49.342;10.802;2023-08-31T00:08:08;13.60;99.90
11152;DHT22;5630;49.342;10.802;2023-08-31T00:10:34;13.60;99.90
11152;DHT22;5630;49.342;10.802;2023-08-31T00:13:03;13.60;99.90
11152;DHT22;5630;49.342;10.802;2023-08-31T00:15:30;13.70;99.90
11152;DHT22;5630;49.342;10.802;2023-08-31T00:17:58;13.60;99.90
11152;DHT22;5630;49.342;10.802;2023-08-31T00:20:24;13.60;99.90
11152;DHT22;5630;49.342;10.802;2023-08-31T00:22:50;13.60;99.90
11152;DHT22;5630;49.342;10.802;2023-08-31T00:25:16;13.70;99.90
11152;DHT22;5630;49.342;10.802;2023-08-31T00:27:41;13.70;99.90
11152;DHT22;5630;49.342;10.802;2023-08-31T00:30:08;13.80;99.90
11152;DHT22;5630;49.342;10.802;2023-08-31T00:32:34;13.70;99.90
11152;DHT22;5630;49.342;10.802;2023-08-31T00:35:00;13.70;99.90
11152;DHT22;5630;49.342;10.802;2023-08-31T00:37:26;13.70;99.90
11152;DHT22;5630;49.342;10.802;2023-08-31T00:39:51;13.70;99.90
11152;DHT22;5630;49.342;10.802;2023-08-31T00:42:18;13.70;99.90
11152;DHT22;5630;49.342;10.802;2023-08-31T00:44:44;13.80;99.90
11152;DHT22;5630;49.342;10.802;2023-08-31T00:47:12;13.70;99.90
11152;DHT22;5630;49.342;10.802;2023-08-31T00:49:39;13.60;99.90
11152;DHT22;5630;49.342;10.802;2023-08-31T00:52:05;13.60;99.90
11152;DHT22;5630;49.342;10.802;2023-08-31T00:54:30;13.70;99.90
11152;DHT22;5630;49.342;10.802;2023-08-31T00:56:56;13.60;99.90
11152;DHT22;5630;49.342;10.802;2023-08-31T00:59:22;13.60;99.90
11152;DHT22;5630;49.342;10.802;2023-08-31T01:02:02;13.60;99.90
11152;DHT22;5630;49.342;10.802;2023-08-31T01:13:19;13.60;99.90
11152;DHT22;5630;49.342;10.802;2023-08-31T01:15:52;13.60;99.90
11152;DHT22;5630;49.342;10.802;2023-08-31T01:18:21;13.60;99.90
11152;DHT22;5630;49.342;10.802;2023-08-31T01:26:11;13.60;99.90
11152;DHT22;5630;49.342;10.802;2023-08-31T01:28:38;13.60;99.90
11152;DHT22;5630;49.342;10.802;2023-08-31T01:31:04;13.70;99.90
11152;DHT22;5630;49.342;10.802;2023-08-31T01:33:31;13.60;99.90
11152;DHT22;5630;49.342;10.802;2023-08-31T01:35:57;13.70;99.90
11152;DHT22;5630;49.342;10.802;2023-08-31T01:38:28;13.70;99.90
11152;DHT22;5630;49.342;10.802;2023-08-31T01:41:01;13.70;99.90
11152;DHT22;5630;49.342;10.802;2023-08-31T01:43:28;13.60;99.90
11152;DHT22;5630;49.342;10.802;2023-08-31T01:45:55;13.70;99.90
11152;DHT22;5630;49.342;10.802;2023-08-31T01:48:21;13.70;99.90
11152;DHT22;5630;49.342;10.802;2023-08-31T01:50:46;13.60;99.90
11152;DHT22;5630;49.342;10.802;2023-08-31T01:53:12;13.60;99.90
11152;DHT22;5630;49.342;10.802;2023-08-31T01:55:38;13.60;99.90
11152;DHT22;5630;49.342;10.802;2023-08-31T01:58:03;13.60;99.90
11152;DHT22;5630;49.342;10.802;2023-08-31T02:00:29;13.60;99.90
11152;DHT22;5630;49.342;10.802;2023-08-31T02:03:00;13.60;99.90
11152;DHT22;5630;49.342;10.802;2023-08-31T02:05:25;13.60;99.90
11152;DHT22;5630;49.342;10.802;2023-08-31T02:07:51;13.60;99.90
11152;DHT22;5630;49.342;10.802;2023-08-31T02:10:16;13.60;99.90
11152;DHT22;5630;49.342;10.802;2023-08-31T02:12:42;13.60;99.90
11152;DHT22;5630;49.342;10.802;2023-08-31T02:15:08;13.60;99.90
11152;DHT22;5630;49.342;10.802;2023-08-31T02:17:34;13.60;99.90
11152;DHT22;5630;49.342;10.802;2023-08-31T02:20:00;13.60;99.90
11152;DHT22;5630;49.342;10.802;2023-08-31T02:22:26;13.60;99.90
11152;DHT22;5630;49.342;10.802;2023-08-31T02:24:52;13.60;99.90
11152;DHT22;5630;49.342;10.802;2023-08-31T02:27:18;13.60;99.90
11152;DHT22;5630;49.342;10.802;2023-08-31T02:29:43;13.60;99.90
11152;DHT22;5630;49.342;10.802;2023-08-31T02:32:09;13.70;99.90
11152;DHT22;5630;49.342;10.802;2023-08-31T02:34:34;13.60;99.90
11152;DHT22;5630;49.342;10.802;2023-08-31T02:37:00;13.60;99.90
11152;DHT22;5630;49.342;10.802;2023-08-31T02:39:25;13.60;99.90
11152;DHT22;5630;49.342;10.802;2023-08-31T02:41:51;13.60;99.90
11152;DHT22;5630;49.342;10.802;2023-08-31T02:44:17;13.50;99.90
11152;DHT22;5630;49.342;10.802;2023-08-31T02:46:43;13.60;99.90
11152;DHT22;5630;49.342;10.802;2023-08-31T02:49:08;13.50;99.90
11152;DHT22;5630;49.342;10.802;2023-08-31T02:51:34;13.50;99.90
11152;DHT22;5630;49.342;10.802;2023-08-31T02:53:59;13.50;99.90
11152;DHT22;5630;49.342;10.802;2023-08-31T02:56:25;13.40;99.90
11152;DHT22;5630;49.342;10.802;2023-08-31T02:58:51;13.40;99.90
11152;DHT22;5630;49.342;10.802;2023-08-31T03:01:16;13.40;99.90
11152;DHT22;5630;49.342;10.802;2023-08-31T03:03:43;13.40;99.90
11152;DHT22;5630;49.342;10.802;2023-08-31T03:06:11;13.30;99.90
11152;DHT22;5630;49.342;10.802;2023-08-31T03:08:37;13.30;99.90
11152;DHT22;5630;49.342;10.802;2023-08-31T03:11:03;13.30;99.90
11152;DHT22;5630;49.342;10.802;2023-08-31T03:13:30;13.20;99.90
11152;DHT22;5630;49.342;10.802;2023-08-31T03:15:55;13.20;99.90
11152;DHT22;5630;49.342;10.802;2023-08-31T03:18:22;13.20;99.90
11152;DHT22;5630;49.342;10.802;2023-08-31T03:20:47;13.10;99.90
11152;DHT22;5630;49.342;10.802;2023-08-31T03:23:13;13.10;99.90
11152;DHT22;5630;49.342;10.802;2023-08-31T03:25:39;13.10;99.90
11152;DHT22;5630;49.342;10.802;2023-08-31T03:28:05;13.10;99.90
11152;DHT22;5630;49.342;10.802;2023-08-31T03:30:30;13.00;99.90
11152;DHT22;5630;49.342;10.802;2023-08-31T03:32:56;13.00;99.90
11152;DHT22;5630;49.342;10.802;2023-08-31T03:35:21;13.00;99.90
11152;DHT22;5630;49.342;10.802;2023-08-31T03:37:52;12.90;99.90
11152;DHT22;5630;49.342;10.802;2023-08-31T03:40:18;12.90;99.90
11152;DHT22;5630;49.342;10.802;2023-08-31T03:42:43;12.90;99.90
11152;DHT22;5630;49.342;10.802;2023-08-31T03:45:09;12.90;99.90
11152;DHT22;5630;49.342;10.802;2023-08-31T03:47:34;12.80;99.90
11152;DHT22;5630;49.342;10.802;2023-08-31T03:50:00;12.80;99.90
11152;DHT22;5630;49.342;10.802;2023-08-31T03:52:25;12.80;99.90
11152;DHT22;5630;49.342;10.802;2023-08-31T03:54:51;12.70;99.90
11152;DHT22;5630;49.342;10.802;2023-08-31T03:57:18;12.70;99.90
11152;DHT22;5630;49.342;10.802;2023-08-31T03:59:43;12.70;99.90
11152;DHT22;5630;49.342;10.802;2023-08-31T04:02:09;12.60;99.90
11152;DHT22;5630;49.342;10.802;2023-08-31T04:04:34;12.60;99.90
11152;DHT22;5630;49.342;10.802;2023-08-31T04:07:00;12.60;99.90
11152;DHT22;5630;49.342;10.802;2023-08-31T04:09:26;12.60;99.90
11152;DHT22;5630;49.342;10.802;2023-08-31T04:11:51;12.50;99.90
11152;DHT22;5630;49.342;10.802;2023-08-31T04:14:17;12.40;99.90
11152;DHT22;5630;49.342;10.802;2023-08-31T04:16:44;12.40;99.90
11152;DHT22;5630;49.342;10.802;2023-08-31T04:19:09;12.40;99.90
11152;DHT22;5630;49.342;10.802;2023-08-31T04:21:35;12.40;99.90
11152;DHT22;5630;49.342;10.802;2023-08-31T04:24:01;12.30;99.90
11152;DHT22;5630;49.342;10.802;2023-08-31T04:26:27;12.40;99.90
11152;DHT22;5630;49.342;10.802;2023-08-31T04:28:53;12.40;99.90
11152;DHT22;5630;49.342;10.802;2023-08-31T04:31:19;12.30;99.90
11152;DHT22;5630;49.342;10.802;2023-08-31T04:33:45;12.30;99.90
11152;DHT22;5630;49.342;10.802;2023-08-31T04:36:11;12.30;99.90
11152;DHT22;5630;49.342;10.802;2023-08-31T04:38:37;12.30;99.90
11152;DHT22;5630;49.342;10.802;2023-08-31T04:41:03;12.30;99.90
11152;DHT22;5630;49.342;10.802;2023-08-31T04:43:29;12.30;99.90
11152;DHT22;5630;49.342;10.802;2023-08-31T04:45:55;12.30;99.90
11152;DHT22;5630;49.342;10.802;2023-08-31T04:48:20;12.30;99.90
11152;DHT22;5630;49.342;10.802;2023-08-31T04:50:46;12.30;99.90
11152;DHT22;5630;49.342;10.802;2023-08-31T04:53:12;12.30;99.90
11152;DHT22;5630;49.342;10.802;2023-08-31T04:55:37;12.30;99.90
11152;DHT22;5630;49.342;10.802;2023-08-31T04:58:03;12.30;99.90
11152;DHT22;5630;49.342;10.802;2023-08-31T05:00:29;12.30;99.90
11152;DHT22;5630;49.342;10.802;2023-08-31T05:02:55;12.30;99.90
11152;DHT22;5630;49.342;10.802;2023-08-31T05:05:21;12.30;99.90
11152;DHT22;5630;49.342;10.802;2023-08-31T05:07:47;12.30;99.90
11152;DHT22;5630;49.342;10.802;2023-08-31T05:10:12;12.30;99.90
11152;DHT22;5630;49.342;10.802;2023-08-31T05:12:38;12.30;99.90
11152;DHT22;5630;49.342;10.802;2023-08-31T05:15:04;12.30;99.90
11152;DHT22;5630;49.342;10.802;2023-08-31T05:17:30;12.40;99.90
11152;DHT22;5630;49.342;10.802;2023-08-31T05:19:56;12.40;99.90
11152;DHT22;5630;49.342;10.802;2023-08-31T05:22:22;12.40;99.90
11152;DHT22;5630;49.342;10.802;2023-08-31T05:24:47;12.40;99.90
11152;DHT22;5630;49.342;10.802;2023-08-31T05:27:13;12.50;99.90
11152;DHT22;5630;49.342;10.802;2023-08-31T05:29:39;12.50;99.90
11152;DHT22;5630;49.342;10.802;2023-08-31T05:32:04;12.50;99.90
11152;DHT22;5630;49.342;10.802;2023-08-31T05:34:30;12.60;99.90
11152;DHT22;5630;49.342;10.802;2023-08-31T05:36:58;12.50;99.90
11152;DHT22;5630;49.342;10.802;2023-08-31T05:39:24;12.60;99.90
11152;DHT22;5630;49.342;10.802;2023-08-31T05:41:50;12.50;99.90
11152;DHT22;5630;49.342;10.802;2023-08-31T05:44:16;12.60;99.90
11152;DHT22;5630;49.342;10.802;2023-08-31T05:46:42;12.60;99.90
11152;DHT22;5630;49.342;10.802;2023-08-31T05:49:08;12.60;99.90
11152;DHT22;5630;49.342;10.802;2023-08-31T05:51:34;12.60;99.90
11152;DHT22;5630;49.342;10.802;2023-08-31T05:53:59;12.70;99.90
11152;DHT22;5630;49.342;10.802;2023-08-31T05:56:25;12.70;99.90
11152;DHT22;5630;49.342;10.802;2023-08-31T05:58:50;12.70;99.90
11152;DHT22;5630;49.342;10.802;2023-08-31T06:01:16;12.70;99.90
11152;DHT22;5630;49.342;10.802;2023-08-31T06:03:42;12.70;99.90
11152;DHT22;5630;49.342;10.802;2023-08-31T06:06:08;12.70;99.90
11152;DHT22;5630;49.342;10.802;2023-08-31T06:08:33;12.80;99.90
11152;DHT22;5630;49.342;10.802;2023-08-31T06:10:59;12.70;99.90
11152;DHT22;5630;49.342;10.802;2023-08-31T06:13:24;12.70;99.90
11152;DHT22;5630;49.342;10.802;2023-08-31T06:15:50;12.80;99.90
11152;DHT22;5630;49.342;10.802;2023-08-31T06:18:15;12.80;99.90
11152;DHT22;5630;49.342;10.802;2023-08-31T06:20:41;13.10;99.90
11152;DHT22;5630;49.342;10.802;2023-08-31T06:23:06;13.40;99.90
11152;DHT22;5630;49.342;10.802;2023-08-31T06:25:32;13.50;99.90
11152;DHT22;5630;49.342;10.802;2023-08-31T06:27:58;13.70;99.90
11152;DHT22;5630;49.342;10.802;2023-08-31T06:30:23;14.00;99.90
11152;DHT22;5630;49.342;10.802;2023-08-31T06:32:50;14.10;99.90
11152;DHT22;5630;49.342;10.802;2023-08-31T06:35:16;14.40;99.90
11152;DHT22;5630;49.342;10.802;2023-08-31T06:37:42;14.70;99.90
11152;DHT22;5630;49.342;10.802;2023-08-31T06:40:09;14.80;99.90
11152;DHT22;5630;49.342;10.802;2023-08-31T06:42:38;14.40;99.90
11152;DHT22;5630;49.342;10.802;2023-08-31T06:45:05;14.50;99.90
11152;DHT22;5630;49.342;10.802;2023-08-31T06:47:31;14.40;99.90
11152;DHT22;5630;49.342;10.802;2023-08-31T06:49:57;14.60;99.90
11152;DHT22;5630;49.342;10.802;2023-08-31T06:52:26;14.30;99.90
11152;DHT22;5630;49.342;10.802;2023-08-31T06:54:52;14.30;99.90
11152;DHT22;5630;49.342;10.802;2023-08-31T06:57:25;14.20;99.90
11152;DHT22;5630;49.342;10.802;2023-08-31T06:59:51;14.10;99.90
11152;DHT22;5630;49.342;10.802;2023-08-31T07:02:16;14.00;99.90
11152;DHT22;5630;49.342;10.802;2023-08-31T07:04:42;14.00;99.90
11152;DHT22;5630;49.342;10.802;2023-08-31T07:07:08;14.00;99.90
11152;DHT22;5630;49.342;10.802;2023-08-31T07:09:34;14.00;99.90
11152;DHT22;5630;49.342;10.802;2023-08-31T07:12:00;14.10;99.90
11152;DHT22;5630;49.342;10.802;2023-08-31T07:14:27;14.10;99.90
11152;DHT22;5630;49.342;10.802;2023-08-31T07:16:52;14.10;99.90
11152;DHT22;5630;49.342;10.802;2023-08-31T07:19:18;14.20;99.90
11152;DHT22;5630;49.342;10.802;2023-08-31T07:21:44;14.50;99.90
11152;DHT22;5630;49.342;10.802;2023-08-31T07:24:09;14.40;99.90
11152;DHT22;5630;49.342;10.802;2023-08-31T07:26:35;14.60;99.90
11152;DHT22;5630;49.342;10.802;2023-08-31T07:29:01;14.70;99.90
11152;DHT22;5630;49.342;10.802;2023-08-31T07:31:30;14.60;99.90
11152;DHT22;5630;49.342;10.802;2023-08-31T07:33:56;14.60;99.90
11152;DHT22;5630;49.342;10.802;2023-08-31T07:36:21;15.00;99.90
11152;DHT22;5630;49.342;10.802;2023-08-31T07:38:47;15.00;99.90
11152;DHT22;5630;49.342;10.802;2023-08-31T07:41:12;15.20;99.90
11152;DHT22;5630;49.342;10.802;2023-08-31T07:43:38;15.10;99.90
11152;DHT22;5630;49.342;10.802;2023-08-31T07:46:04;15.20;99.90
11152;DHT22;5630;49.342;10.802;2023-08-31T07:48:29;15.30;99.90
11152;DHT22;5630;49.342;10.802;2023-08-31T07:50:55;15.40;99.90
11152;DHT22;5630;49.342;10.802;2023-08-31T07:53:20;15.60;99.90
11152;DHT22;5630;49.342;10.802;2023-08-31T07:55:53;15.80;99.90
11152;DHT22;5630;49.342;10.802;2023-08-31T07:58:24;15.60;99.90
11152;DHT22;5630;49.342;10.802;2023-08-31T08:00:55;15.90;99.90
11152;DHT22;5630;49.342;10.802;2023-08-31T08:03:24;16.10;99.90
11152;DHT22;5630;49.342;10.802;2023-08-31T08:05:50;16.10;99.90
11152;DHT22;5630;49.342;10.802;2023-08-31T08:08:16;16.10;99.90
11152;DHT22;5630;49.342;10.802;2023-08-31T08:10:42;16.50;99.90
11152;DHT22;5630;49.342;10.802;2023-08-31T08:13:09;16.90;99.90
11152;DHT22;5630;49.342;10.802;2023-08-31T08:15:34;16.80;99.90
11152;DHT22;5630;49.342;10.802;2023-08-31T08:18:00;17.00;99.90
11152;DHT22;5630;49.342;10.802;2023-08-31T08:20:27;17.20;99.90
11152;DHT22;5630;49.342;10.802;2023-08-31T08:22:52;17.40;99.90
11152;DHT22;5630;49.342;10.802;2023-08-31T08:25:19;17.40;99.90
11152;DHT22;5630;49.342;10.802;2023-08-31T08:27:45;17.30;99.90
11152;DHT22;5630;49.342;10.802;2023-08-31T08:30:11;17.40;99.90
11152;DHT22;5630;49.342;10.802;2023-08-31T08:32:37;17.20;99.90
11152;DHT22;5630;49.342;10.802;2023-08-31T08:35:03;17.40;99.90
11152;DHT22;5630;49.342;10.802;2023-08-31T08:37:29;17.30;99.90
11152;DHT22;5630;49.342;10.802;2023-08-31T08:39:55;17.20;99.90
11152;DHT22;5630;49.342;10.802;2023-08-31T08:42:22;17.50;99.90
11152;DHT22;5630;49.342;10.802;2023-08-31T08:44:50;17.70;99.90
11152;DHT22;5630;49.342;10.802;2023-08-31T08:47:16;17.70;99.90
11152;DHT22;5630;49.342;10.802;2023-08-31T08:49:42;17.60;99.90
11152;DHT22;5630;49.342;10.802;2023-08-31T08:52:09;17.50;99.90
11152;DHT22;5630;49.342;10.802;2023-08-31T08:54:35;17.40;99.90
11152;DHT22;5630;49.342;10.802;2023-08-31T08:57:01;17.30;99.90
11152;DHT22;5630;49.342;10.802;2023-08-31T08:59:27;17.00;99.90
11152;DHT22;5630;49.342;10.802;2023-08-31T09:01:53;16.80;99.90
11152;DHT22;5630;49.342;10.802;2023-08-31T09:04:19;16.80;99.90
11152;DHT22;5630;49.342;10.802;2023-08-31T09:06:44;17.00;99.90
11152;DHT22;5630;49.342;10.802;2023-08-31T09:09:10;17.30;99.90
11152;DHT22;5630;49.342;10.802;2023-08-31T09:11:36;17.60;99.90
11152;DHT22;5630;49.342;10.802;2023-08-31T09:14:19;17.50;99.90
11152;DHT22;5630;49.342;10.802;2023-08-31T09:16:46;17.40;99.90
11152;DHT22;5630;49.342;10.802;2023-08-31T09:21:44;17.50;99.90
11152;DHT22;5630;49.342;10.802;2023-08-31T09:24:11;17.70;99.90
11152;DHT22;5630;49.342;10.802;2023-08-31T09:26:39;18.00;99.90
11152;DHT22;5630;49.342;10.802;2023-08-31T09:29:05;18.40;99.90
11152;DHT22;5630;49.342;10.802;2023-08-31T09:31:31;18.70;99.90
11152;DHT22;5630;49.342;10.802;2023-08-31T09:33:57;19.10;99.90
11152;DHT22;5630;49.342;10.802;2023-08-31T09:36:23;19.20;99.90
11152;DHT22;5630;49.342;10.802;2023-08-31T09:38:48;18.80;99.90
11152;DHT22;5630;49.342;10.802;2023-08-31T09:41:14;18.40;99.90
11152;DHT22;5630;49.342;10.802;2023-08-31T09:43:41;18.20;99.90
11152;DHT22;5630;49.342;10.802;2023-08-31T09:46:07;18.10;99.90
11152;DHT22;5630;49.342;10.802;2023-08-31T09:48:35;18.00;99.90
11152;DHT22;5630;49.342;10.802;2023-08-31T09:51:04;18.00;99.90
11152;DHT22;5630;49.342;10.802;2023-08-31T09:53:31;18.00;99.90
11152;DHT22;5630;49.342;10.802;2023-08-31T09:55:57;18.20;99.90
11152;DHT22;5630;49.342;10.802;2023-08-31T09:58:23;18.60;99.90
11152;DHT22;5630;49.342;10.802;2023-08-31T10:00:50;18.90;99.90
11152;DHT22;5630;49.342;10.802;2023-08-31T10:03:17;18.70;99.90
11152;DHT22;5630;49.342;10.802;2023-08-31T10:05:47;18.40;99.90
11152;DHT22;5630;49.342;10.802;2023-08-31T10:08:14;18.40;99.90
11152;DHT22;5630;49.342;10.802;2023-08-31T10:10:40;18.30;99.90
11152;DHT22;5630;49.342;10.802;2023-08-31T10:13:06;18.30;99.90
11152;DHT22;5630;49.342;10.802;2023-08-31T10:15:33;18.20;99.90
11152;DHT22;5630;49.342;10.802;2023-08-31T10:18:00;18.00;99.90
11152;DHT22;5630;49.342;10.802;2023-08-31T10:20:27;18.10;99.90
11152;DHT22;5630;49.342;10.802;2023-08-31T10:25:25;18.20;99.90
11152;DHT22;5630;49.342;10.802;2023-08-31T10:27:52;18.00;99.90
11152;DHT22;5630;49.342;10.802;2023-08-31T10:30:25;18.00;99.90
11152;DHT22;5630;49.342;10.802;2023-08-31T10:36:01;17.50;99.90
11152;DHT22;5630;49.342;10.802;2023-08-31T10:38:31;17.40;99.90
11152;DHT22;5630;49.342;10.802;2023-08-31T10:43:45;17.80;99.90
11152;DHT22;5630;49.342;10.802;2023-08-31T10:46:25;18.00;99.90
11152;DHT22;5630;49.342;10.802;2023-08-31T10:48:54;18.10;99.90
11152;DHT22;5630;49.342;10.802;2023-08-31T10:51:40;18.30;99.90
11152;DHT22;5630;49.342;10.802;2023-08-31T10:54:13;18.50;99.90
11152;DHT22;5630;49.342;10.802;2023-08-31T10:59:50;19.00;99.90
11152;DHT22;5630;49.342;10.802;2023-08-31T11:02:39;18.80;99.90
11152;DHT22;5630;49.342;10.802;2023-08-31T11:05:11;18.90;99.90
11152;DHT22;5630;49.342;10.802;2023-08-31T11:07:39;18.70;99.90
11152;DHT22;5630;49.342;10.802;2023-08-31T11:10:19;18.80;99.90
11152;DHT22;5630;49.342;10.802;2023-08-31T11:12:47;19.10;99.90
11152;DHT22;5630;49.342;10.802;2023-08-31T11:15:22;19.00;99.90
11152;DHT22;5630;49.342;10.802;2023-08-31T11:17:53;18.80;99.90
11152;DHT22;5630;49.342;10.802;2023-08-31T11:20:20;18.70;99.90
11152;DHT22;5630;49.342;10.802;2023-08-31T11:22:48;18.50;99.90
11152;DHT22;5630;49.342;10.802;2023-08-31T11:25:20;18.20;99.90
11152;DHT22;5630;49.342;10.802;2023-08-31T11:28:03;18.00;99.90
11152;DHT22;5630;49.342;10.802;2023-08-31T11:30:37;17.90;99.90
11152;DHT22;5630;49.342;10.802;2023-08-31T11:33:07;17.90;99.90
11152;DHT22;5630;49.342;10.802;2023-08-31T11:35:37;17.80;99.90
11152;DHT22;5630;49.342;10.802;2023-08-31T11:38:03;17.80;99.90
11152;DHT22;5630;49.342;10.802;2023-08-31T11:40:29;17.70;99.90
11152;DHT22;5630;49.342;10.802;2023-08-31T11:42:56;17.70;99.90
11152;DHT22;5630;49.342;10.802;2023-08-31T11:45:23;17.80;99.90
11152;DHT22;5630;49.342;10.802;2023-08-31T11:47:50;17.60;99.90
11152;DHT22;5630;49.342;10.802;2023-08-31T11:50:16;17.60;99.90
11152;DHT22;5630;49.342;10.802;2023-08-31T11:52:42;17.60;99.90
11152;DHT22;5630;49.342;10.802;2023-08-31T11:55:12;17.60;99.90
11152;DHT22;5630;49.342;10.802;2023-08-31T11:57:38;17.60;99.90
11152;DHT22;5630;49.342;10.802;2023-08-31T12:00:04;17.60;99.90
11152;DHT22;5630;49.342;10.802;2023-08-31T12:02:37;17.70;99.90
11152;DHT22;5630;49.342;10.802;2023-08-31T12:05:02;17.70;99.90
11152;DHT22;5630;49.342;10.802;2023-08-31T12:07:30;17.80;99.90
11152;DHT22;5630;49.342;10.802;2023-08-31T12:10:02;17.60;99.90
11152;DHT22;5630;49.342;10.802;2023-08-31T12:12:30;17.60;99.90
11152;DHT22;5630;49.342;10.802;2023-08-31T12:14:58;17.70;99.90
11152;DHT22;5630;49.342;10.802;2023-08-31T12:17:26;17.70;99.90
11152;DHT22;5630;49.342;10.802;2023-08-31T12:19:51;17.80;99.90
11152;DHT22;5630;49.342;10.802;2023-08-31T12:22:17;18.10;99.90
11152;DHT22;5630;49.342;10.802;2023-08-31T12:24:43;18.30;99.90
11152;DHT22;5630;49.342;10.802;2023-08-31T12:27:09;18.40;99.90
11152;DHT22;5630;49.342;10.802;2023-08-31T12:29:34;18.40;99.90
11152;DHT22;5630;49.342;10.802;2023-08-31T12:32:00;18.30;99.90
11152;DHT22;5630;49.342;10.802;2023-08-31T12:34:26;18.30;99.90
11152;DHT22;5630;49.342;10.802;2023-08-31T12:36:51;18.30;99.90
11152;DHT22;5630;49.342;10.802;2023-08-31T12:39:18;18.20;99.90
11152;DHT22;5630;49.342;10.802;2023-08-31T12:41:44;18.20;99.90
11152;DHT22;5630;49.342;10.802;2023-08-31T12:44:10;18.10;99.90
11152;DHT22;5630;49.342;10.802;2023-08-31T12:46:35;18.10;99.90
11152;DHT22;5630;49.342;10.802;2023-08-31T12:49:02;18.30;99.90
11152;DHT22;5630;49.342;10.802;2023-08-31T12:51:29;18.40;99.90
11152;DHT22;5630;49.342;10.802;2023-08-31T12:53:54;18.50;99.90
11152;DHT22;5630;49.342;10.802;2023-08-31T12:56:20;18.50;99.90
11152;DHT22;5630;49.342;10.802;2023-08-31T12:58:50;18.20;99.90
11152;DHT22;5630;49.342;10.802;2023-08-31T13:01:15;18.30;99.90
11152;DHT22;5630;49.342;10.802;2023-08-31T13:03:41;18.40;99.90
11152;DHT22;5630;49.342;10.802;2023-08-31T13:06:06;18.40;99.90
11152;DHT22;5630;49.342;10.802;2023-08-31T13:08:32;18.30;99.90
11152;DHT22;5630;49.342;10.802;2023-08-31T13:10:57;18.40;99.90
11152;DHT22;5630;49.342;10.802;2023-08-31T13:13:23;18.60;99.90
11152;DHT22;5630;49.342;10.802;2023-08-31T13:15:49;18.80;99.90
11152;DHT22;5630;49.342;10.802;2023-08-31T13:18:15;18.90;99.90
11152;DHT22;5630;49.342;10.802;2023-08-31T13:20:48;19.00;99.90
11152;DHT22;5630;49.342;10.802;2023-08-31T13:23:13;18.90;99.90
11152;DHT22;5630;49.342;10.802;2023-08-31T13:25:39;18.90;99.90
11152;DHT22;5630;49.342;10.802;2023-08-31T13:28:05;19.10;99.90
11152;DHT22;5630;49.342;10.802;2023-08-31T13:30:30;19.10;99.90
11152;DHT22;5630;49.342;10.802;2023-08-31T13:32:56;19.10;99.90
11152;DHT22;5630;49.342;10.802;2023-08-31T13:35:21;19.00;99.90
11152;DHT22;5630;49.342;10.802;2023-08-31T13:37:47;18.80;99.90
11152;DHT22;5630;49.342;10.802;2023-08-31T13:40:12;18.80;99.90
11152;DHT22;5630;49.342;10.802;2023-08-31T13:42:52;18.70;99.90
11152;DHT22;5630;49.342;10.802;2023-08-31T13:45:18;18.70;99.90
11152;DHT22;5630;49.342;10.802;2023-08-31T13:47:44;18.70;99.90
11152;DHT22;5630;49.342;10.802;2023-08-31T13:50:12;18.60;99.90
11152;DHT22;5630;49.342;10.802;2023-08-31T13:52:38;18.60;99.90
11152;DHT22;5630;49.342;10.802;2023-08-31T13:55:04;18.70;99.90
11152;DHT22;5630;49.342;10.802;2023-08-31T13:57:30;18.80;99.90
11152;DHT22;5630;49.342;10.802;2023-08-31T13:59:55;18.80;99.90
11152;DHT22;5630;49.342;10.802;2023-08-31T14:02:21;18.70;99.90
11152;DHT22;5630;49.342;10.802;2023-08-31T14:04:46;18.70;99.90
11152;DHT22;5630;49.342;10.802;2023-08-31T14:07:12;18.80;99.90
11152;DHT22;5630;49.342;10.802;2023-08-31T14:09:37;18.80;99.90
11152;DHT22;5630;49.342;10.802;2023-08-31T14:12:03;18.80;99.90
11152;DHT22;5630;49.342;10.802;2023-08-31T14:14:29;18.60;99.90
11152;DHT22;5630;49.342;10.802;2023-08-31T14:16:54;18.60;99.90
11152;DHT22;5630;49.342;10.802;2023-08-31T14:19:20;18.50;99.90
11152;DHT22;5630;49.342;10.802;2023-08-31T14:21:47;18.30;99.90
11152;DHT22;5630;49.342;10.802;2023-08-31T14:24:13;18.20;99.90
11152;DHT22;5630;49.342;10.802;2023-08-31T14:26:38;18.10;99.90
11152;DHT22;5630;49.342;10.802;2023-08-31T14:29:04;18.00;99.90
11152;DHT22;5630;49.342;10.802;2023-08-31T14:31:29;18.00;99.90
11152;DHT22;5630;49.342;10.802;2023-08-31T14:33:55;17.90;99.90
11152;DHT22;5630;49.342;10.802;2023-08-31T14:36:21;17.90;99.90
11152;DHT22;5630;49.342;10.802;2023-08-31T14:38:47;17.80;99.90
11152;DHT22;5630;49.342;10.802;2023-08-31T14:41:12;18.00;99.90
11152;DHT22;5630;49.342;10.802;2023-08-31T14:43:38;18.10;99.90
11152;DHT22;5630;49.342;10.802;2023-08-31T14:46:04;18.20;99.90
11152;DHT22;5630;49.342;10.802;2023-08-31T14:48:30;18.30;99.90
11152;DHT22;5630;49.342;10.802;2023-08-31T14:50:57;18.30;99.90
11152;DHT22;5630;49.342;10.802;2023-08-31T14:53:26;18.30;99.90
11152;DHT22;5630;49.342;10.802;2023-08-31T14:55:52;18.30;99.90
11152;DHT22;5630;49.342;10.802;2023-08-31T14:58:18;18.20;99.90
11152;DHT22;5630;49.342;10.802;2023-08-31T15:00:44;18.30;99.90
11152;DHT22;5630;49.342;10.802;2023-08-31T15:03:10;18.20;99.90
11152;DHT22;5630;49.342;10.802;2023-08-31T15:05:36;18.20;99.90
11152;DHT22;5630;49.342;10.802;2023-08-31T15:08:03;18.30;99.90
11152;DHT22;5630;49.342;10.802;2023-08-31T15:10:29;18.30;99.90
11152;DHT22;5630;49.342;10.802;2023-08-31T15:12:55;18.30;99.90
11152;DHT22;5630;49.342;10.802;2023-08-31T15:15:25;18.30;99.90
11152;DHT22;5630;49.342;10.802;2023-08-31T15:17:51;18.20;99.90
11152;DHT22;5630;49.342;10.802;2023-08-31T15:20:16;18.30;99.90
11152;DHT22;5630;49.342;10.802;2023-08-31T15:22:42;18.30;99.90
11152;DHT22;5630;49.342;10.802;2023-08-31T15:25:07;18.40;99.90
11152;DHT22;5630;49.342;10.802;2023-08-31T15:27:33;18.40;99.90
11152;DHT22;5630;49.342;10.802;2023-08-31T15:29:59;18.40;99.90
11152;DHT22;5630;49.342;10.802;2023-08-31T15:32:24;18.50;99.90
11152;DHT22;5630;49.342;10.802;2023-08-31T15:34:50;18.40;99.90
11152;DHT22;5630;49.342;10.802;2023-08-31T15:37:15;18.40;99.90
11152;DHT22;5630;49.342;10.802;2023-08-31T15:39:41;18.40;99.90
11152;DHT22;5630;49.342;10.802;2023-08-31T15:42:06;18.40;99.90
11152;DHT22;5630;49.342;10.802;2023-08-31T15:44:32;18.20;99.90
11152;DHT22;5630;49.342;10.802;2023-08-31T15:47:04;18.20;99.90
11152;DHT22;5630;49.342;10.802;2023-08-31T15:49:30;18.20;99.90
11152;DHT22;5630;49.342;10.802;2023-08-31T15:51:56;18.10;99.90
11152;DHT22;5630;49.342;10.802;2023-08-31T15:54:21;18.10;99.90